Impacts TAF Board
For situational awareness. Not to be used for flight planning purposes.
IDs:

KTCC - Tucumcari Muni, NM, US

Issued at 1120 UTC 30 Oct 2020
Updated at 1705 UTC 30 Oct 2020
Potential Impact None Slight Moderate High
Time1653Z 30/18Z 30/19Z 30/20Z 30/21Z 30/22Z 30/23Z 31/00Z 31/01Z 31/02Z 31/03Z 31/04Z 31/05Z 31/06Z>>
Type OBS PRVL PRVL PRVL PRVL PRVL PRVL PRVL PRVL PRVL PRVL PRVL PRVL PRVL
VIS 10 >6 >6 >6 >6 >6 >6 >6 >6 >6 >6 >6 >6 >6
CIG -- -- -- -- -- -- -- -- -- -- -- -- -- --
Cover CLR SCT SCT SCT SCT SCT SCT SCT SCT SCT SCT SCT SCT SCT
FltCat VFR VFR VFR VFR VFR VFR VFR VFR VFR VFR VFR VFR VFR VFR
WX -- -- -- -- -- -- -- -- -- -- -- -- -- --
WDir 270 VRB VRB 210 210 210 210 210 210 210 210 210 210 210
WSpd 4 6 6 12 12 12 12 12 12 12 12 12 12 12
WGst -- -- -- -- -- -- -- -- -- -- -- -- -- --
Raw TAF
KTCC 301120Z 3012/3112 VRB06KT P6SM SCT250
  FM302000 21012KT P6SM SCT250


Raw METAR
KTCC 301653Z AUTO 27004KT 10SM CLR 11/05 A3022 RMK AO2 SLP216 T01110050 $
KTCC 301553Z AUTO 28006KT 10SM CLR 09/04 A3024 RMK AO2 SLP228 T00890039 $
KTCC 301453Z AUTO 28006KT 10SM CLR 06/03 A3024 RMK AO2 SLP233 T00610028 53008

METAR Board
Radar Display
Forecast Discussion
For situational awareness. Not to be used for flight planning purposes.